Time;durP1;ratioP1;P1;durP2;ratioP2;P2;SDS_P1;SDS_P2;PMS_P1;PMS_P2;Temp;Humidity;BMP_temperature;BMP_pressure;BME280_temperature;BME280_humidity;BME280_pressure;Samples;Min_cycle;Max_cycle;Signal;HPM_P1;HPM_P2
2024/03/04 00:02:09;;;;;;;17.17;15.57;;;7.30;99.90;;;;;;4840714;29;20206;-78
2024/03/04 00:04:37;;;;;;;16.80;15.10;;;7.30;99.90;;;;;;4841784;29;20226;-78
2024/03/04 00:07:04;;;;;;;18.47;16.47;;;7.30;99.90;;;;;;4841692;29;20213;-78
2024/03/04 00:09:31;;;;;;;16.90;15.40;;;7.30;99.90;;;;;;4841395;29;20705;-78
2024/03/04 00:11:58;;;;;;;17.83;16.13;;;7.30;99.90;;;;;;4840247;29;20279;-78
2024/03/04 00:14:25;;;;;;;18.73;16.80;;;7.30;99.90;;;;;;4840275;29;20234;-78
2024/03/04 00:16:53;;;;;;;19.17;17.37;;;7.30;99.90;;;;;;4841890;29;20251;-77
2024/03/04 00:19:20;;;;;;;18.83;17.13;;;7.30;99.90;;;;;;4841325;29;20251;-78
2024/03/04 00:21:47;;;;;;;19.87;17.83;;;7.30;99.90;;;;;;4840217;29;20259;-78
2024/03/04 00:24:13;;;;;;;20.07;18.07;;;7.30;99.90;;;;;;4841064;29;20226;-77
2024/03/04 00:26:41;;;;;;;19.97;17.97;;;7.30;99.90;;;;;;4841438;29;20268;-78
2024/03/04 00:29:08;;;;;;;20.67;18.57;;;7.30;99.90;;;;;;4841054;29;20222;-78
2024/03/04 00:31:35;;;;;;;19.07;17.27;;;7.30;99.90;;;;;;4841267;29;20202;-78
2024/03/04 00:34:04;;;;;;;21.77;19.67;;;7.30;99.90;;;;;;4840925;29;20316;-78
2024/03/04 00:36:31;;;;;;;21.80;19.60;;;7.40;99.90;;;;;;4841470;29;20207;-77
2024/03/04 00:38:57;;;;;;;23.10;20.77;;;7.40;99.90;;;;;;4839658;29;20233;-77
2024/03/04 00:41:25;;;;;;;23.00;20.53;;;7.40;99.90;;;;;;4839883;29;20234;-78
2024/03/04 00:43:53;;;;;;;21.70;19.47;;;7.40;99.90;;;;;;4840223;29;20278;-78
2024/03/04 00:46:21;;;;;;;21.87;19.60;;;7.40;99.90;;;;;;4839916;29;20226;-78
2024/03/04 00:48:48;;;;;;;22.63;20.07;;;7.30;99.90;;;;;;4840101;29;20214;-78
2024/03/04 00:51:17;;;;;;;23.67;21.20;;;7.30;99.90;;;;;;4840914;29;20238;-78
2024/03/04 00:53:45;;;;;;;23.27;20.87;;;7.30;99.90;;;;;;4841017;29;20281;-78
2024/03/04 00:56:13;;;;;;;22.97;20.40;;;7.40;99.90;;;;;;4840911;29;20208;-78
2024/03/04 00:58:40;;;;;;;22.40;20.20;;;7.40;99.90;;;;;;4841161;29;20301;-78
2024/03/04 01:01:07;;;;;;;22.73;20.50;;;7.40;99.90;;;;;;4840785;29;20202;-78
2024/03/04 01:03:34;;;;;;;21.87;19.70;;;7.40;99.90;;;;;;4838565;29;20274;-78
2024/03/04 01:06:00;;;;;;;20.63;18.73;;;7.40;99.90;;;;;;4844840;29;20233;-78
2024/03/04 01:08:29;;;;;;;20.47;18.53;;;7.40;99.90;;;;;;4844536;29;20197;-78
2024/03/04 01:10:56;;;;;;;22.70;20.47;;;7.40;99.90;;;;;;4843048;29;20226;-78
2024/03/04 01:13:24;;;;;;;22.70;20.43;;;7.40;99.90;;;;;;4851760;29;20206;-78
2024/03/04 01:15:51;;;;;;;22.20;20.10;;;7.40;99.90;;;;;;4843301;29;20226;-77
2024/03/04 01:18:18;;;;;;;21.57;19.47;;;7.40;99.90;;;;;;4844496;29;20280;-78
2024/03/04 01:20:45;;;;;;;21.80;19.57;;;7.40;99.90;;;;;;4843144;29;20222;-78
2024/03/04 01:23:12;;;;;;;25.37;22.67;;;7.40;99.90;;;;;;4843339;29;20210;-78
2024/03/04 01:25:40;;;;;;;22.47;20.30;;;7.50;99.90;;;;;;4843157;29;20234;-78
2024/03/04 01:28:07;;;;;;;24.20;21.70;;;7.40;99.90;;;;;;4843146;29;20209;-77
2024/03/04 01:30:34;;;;;;;23.27;20.93;;;7.40;99.90;;;;;;4842826;29;20230;-77
2024/03/04 01:33:03;;;;;;;23.87;21.40;;;7.50;99.90;;;;;;4843171;29;20675;-77
2024/03/04 01:35:30;;;;;;;22.27;20.17;;;7.50;99.90;;;;;;4843187;29;20222;-78
2024/03/04 01:37:58;;;;;;;22.90;20.60;;;7.50;99.90;;;;;;4843020;29;20706;-78
2024/03/04 01:40:24;;;;;;;20.80;18.63;;;7.50;99.90;;;;;;4842782;29;20198;-78
2024/03/04 01:42:55;;;;;;;21.70;19.67;;;7.50;99.90;;;;;;4844158;29;20202;-78
2024/03/04 01:45:24;;;;;;;21.90;19.90;;;7.50;99.90;;;;;;4844156;29;20697;-77
2024/03/04 01:47:52;;;;;;;20.83;19.00;;;7.50;99.90;;;;;;4842700;29;20215;-77
2024/03/04 01:50:21;;;;;;;22.33;20.33;;;7.50;99.90;;;;;;4842780;29;20309;-78
2024/03/04 01:52:49;;;;;;;22.53;20.23;;;7.50;99.90;;;;;;4843258;29;20214;-78
2024/03/04 01:55:17;;;;;;;21.63;19.63;;;7.50;99.90;;;;;;4843823;29;20280;-78
2024/03/04 01:57:44;;;;;;;22.40;20.10;;;7.50;99.90;;;;;;4843975;29;20575;-78
2024/03/04 02:00:15;;;;;;;22.10;20.00;;;7.50;99.90;;;;;;4842498;29;20267;-78
2024/03/04 02:02:43;;;;;;;21.03;19.00;;;7.50;99.90;;;;;;4842633;29;20210;-78
2024/03/04 02:05:10;;;;;;;23.53;20.97;;;7.50;99.90;;;;;;4843710;29;20268;-77
2024/03/04 02:07:38;;;;;;;23.50;21.17;;;7.50;99.90;;;;;;4844012;29;20206;-77
2024/03/04 02:10:07;;;;;;;23.90;21.40;;;7.40;99.90;;;;;;4841919;29;20698;-77
2024/03/04 02:12:35;;;;;;;22.87;20.60;;;7.40;99.90;;;;;;4843016;29;20213;-78
2024/03/04 02:15:03;;;;;;;23.53;21.33;;;7.40;99.90;;;;;;4841220;29;20222;-78
2024/03/04 02:17:32;;;;;;;22.50;20.40;;;7.40;99.90;;;;;;4842307;29;20226;-78
2024/03/04 02:20:03;;;;;;;23.53;21.33;;;7.30;99.90;;;;;;4842264;29;20199;-77
2024/03/04 02:22:32;;;;;;;22.80;20.67;;;7.30;99.90;;;;;;4843741;29;20237;-78
2024/03/04 02:24:58;;;;;;;23.47;21.13;;;7.30;99.90;;;;;;4843353;29;20222;-78
2024/03/04 02:27:26;;;;;;;24.10;21.60;;;7.30;99.90;;;;;;4842466;29;20211;-78
2024/03/04 02:29:52;;;;;;;22.97;20.80;;;7.30;99.90;;;;;;4843276;29;20838;-78
2024/03/04 02:32:20;;;;;;;23.03;20.80;;;7.30;99.90;;;;;;4842978;29;20285;-78
2024/03/04 02:34:49;;;;;;;22.67;20.47;;;7.30;99.90;;;;;;4843460;29;20226;-78
2024/03/04 02:37:16;;;;;;;21.60;19.70;;;7.30;99.90;;;;;;4843315;29;20222;-78
2024/03/04 02:39:44;;;;;;;22.53;20.43;;;7.30;99.90;;;;;;4842819;29;20263;-77
2024/03/04 02:42:11;;;;;;;21.97;19.83;;;7.30;99.90;;;;;;4841743;29;20761;-78
2024/03/04 02:44:38;;;;;;;20.73;18.73;;;7.30;99.90;;;;;;4841942;29;20325;-78
2024/03/04 02:47:05;;;;;;;22.97;20.63;;;7.30;99.90;;;;;;4843439;29;20198;-78
2024/03/04 02:49:34;;;;;;;22.03;20.03;;;7.30;99.90;;;;;;4843009;29;20207;-78
2024/03/04 02:52:01;;;;;;;23.00;20.87;;;7.30;99.90;;;;;;4842032;29;20233;-78
2024/03/04 02:54:28;;;;;;;22.17;20.07;;;7.30;99.90;;;;;;4841717;29;20455;-77
2024/03/04 02:56:56;;;;;;;21.67;19.67;;;7.30;99.90;;;;;;4843082;29;20207;-77
2024/03/04 02:59:24;;;;;;;22.27;20.07;;;7.30;99.90;;;;;;4842845;29;20207;-77
2024/03/04 03:01:50;;;;;;;21.60;19.60;;;7.30;99.90;;;;;;4841363;29;20778;-78
2024/03/04 03:04:18;;;;;;;21.63;19.53;;;7.20;99.90;;;;;;4842563;29;20226;-78
2024/03/04 03:06:45;;;;;;;22.23;20.13;;;7.20;99.90;;;;;;4843005;29;20296;-78
2024/03/04 03:09:12;;;;;;;21.73;19.53;;;7.20;99.90;;;;;;4842385;29;20226;-78
2024/03/04 03:11:40;;;;;;;21.00;19.10;;;7.20;99.90;;;;;;4841709;29;20227;-77
2024/03/04 03:14:08;;;;;;;20.40;18.60;;;7.20;99.90;;;;;;4841666;29;20229;-78
2024/03/04 03:16:35;;;;;;;20.90;19.00;;;7.20;99.90;;;;;;4842839;29;20202;-78
2024/03/04 03:19:02;;;;;;;21.03;19.00;;;7.20;99.90;;;;;;4842543;29;20301;-77
2024/03/04 03:21:29;;;;;;;20.63;18.73;;;7.20;99.90;;;;;;4840931;29;20727;-78
2024/03/04 03:23:56;;;;;;;20.83;18.93;;;7.20;99.90;;;;;;4842358;29;20226;-77
2024/03/04 03:26:25;;;;;;;20.97;19.00;;;7.10;99.90;;;;;;4842294;29;20195;-77
2024/03/04 03:28:52;;;;;;;21.07;19.07;;;7.10;99.90;;;;;;4841175;29;20207;-77
2024/03/04 03:31:21;;;;;;;20.00;18.20;;;7.10;99.90;;;;;;4841853;29;20591;-78
2024/03/04 03:33:47;;;;;;;20.30;18.43;;;7.10;99.90;;;;;;4841255;29;20219;-77
2024/03/04 03:36:14;;;;;;;19.97;18.13;;;7.10;99.90;;;;;;4842130;29;20194;-78
2024/03/04 03:38:41;;;;;;;21.57;19.67;;;7.10;99.90;;;;;;4842302;29;20706;-77
2024/03/04 03:41:08;;;;;;;20.93;19.03;;;7.10;99.90;;;;;;4840827;29;20198;-78
2024/03/04 03:43:34;;;;;;;22.40;20.30;;;7.00;99.90;;;;;;4841221;29;20211;-78
2024/03/04 03:46:02;;;;;;;20.20;18.33;;;7.00;99.90;;;;;;4841310;29;20309;-78
2024/03/04 03:48:30;;;;;;;21.67;19.77;;;7.10;99.90;;;;;;4841757;29;20282;-78
2024/03/04 03:51:03;;;;;;;22.07;19.80;;;7.10;99.90;;;;;;4841937;29;20773;-78
2024/03/04 03:53:29;;;;;;;21.43;19.53;;;7.10;99.90;;;;;;4842543;29;20207;-78
2024/03/04 03:55:56;;;;;;;22.13;20.00;;;7.10;99.90;;;;;;4842152;29;20223;-78
2024/03/04 03:58:23;;;;;;;23.47;21.20;;;7.10;99.90;;;;;;4830586;29;20207;-77
2024/03/04 04:00:50;;;;;;;21.43;19.53;;;7.10;99.90;;;;;;4836938;29;20259;-77
2024/03/04 04:03:16;;;;;;;21.63;19.60;;;7.20;99.90;;;;;;4838214;29;20210;-77
2024/03/04 04:05:45;;;;;;;21.63;19.63;;;7.20;99.90;;;;;;4834045;29;20222;-77
2024/03/04 04:08:12;;;;;;;21.17;19.10;;;7.20;99.90;;;;;;4842387;29;20199;-78
2024/03/04 04:10:39;;;;;;;21.63;19.60;;;7.20;99.90;;;;;;4843904;29;20282;-78
2024/03/04 04:13:06;;;;;;;21.50;19.50;;;7.20;99.90;;;;;;4842219;29;20206;-76
2024/03/04 04:15:33;;;;;;;19.13;17.53;;;7.20;99.90;;;;;;4841229;29;20257;-78
2024/03/04 04:18:00;;;;;;;19.80;18.07;;;7.20;99.90;;;;;;4842417;29;20194;-78
2024/03/04 04:20:28;;;;;;;20.67;18.87;;;7.30;99.90;;;;;;4842273;29;20674;-77
2024/03/04 04:22:56;;;;;;;20.77;18.90;;;7.30;99.90;;;;;;4841757;29;20239;-78
2024/03/04 04:25:22;;;;;;;21.43;19.43;;;7.30;99.90;;;;;;4842539;29;20295;-78
2024/03/04 04:27:49;;;;;;;20.03;18.23;;;7.30;99.90;;;;;;4841401;29;20207;-77
2024/03/04 04:30:17;;;;;;;21.17;19.07;;;7.30;99.90;;;;;;4840965;29;20215;-77
2024/03/04 04:32:43;;;;;;;21.53;19.63;;;7.40;99.90;;;;;;4842069;29;20210;-78
2024/03/04 04:35:10;;;;;;;21.00;19.10;;;7.40;99.90;;;;;;4841041;29;20254;-78
2024/03/04 04:37:37;;;;;;;21.50;19.50;;;7.40;99.90;;;;;;4839934;29;20225;-78
2024/03/04 04:40:08;;;;;;;19.93;18.13;;;7.40;99.90;;;;;;4841234;29;20203;-77
2024/03/04 04:42:35;;;;;;;20.33;18.53;;;7.50;99.90;;;;;;4840684;29;20302;-78
2024/03/04 04:45:02;;;;;;;20.37;18.53;;;7.50;99.90;;;;;;4842004;29;20241;-77
2024/03/04 04:47:29;;;;;;;20.80;18.93;;;7.50;99.90;;;;;;4840121;29;20230;-78
2024/03/04 04:49:56;;;;;;;18.90;17.27;;;7.50;99.90;;;;;;4841604;29;20203;-77
2024/03/04 04:52:23;;;;;;;19.80;18.13;;;7.50;99.90;;;;;;4840099;29;20245;-77
2024/03/04 04:54:49;;;;;;;19.57;17.87;;;7.60;99.90;;;;;;4828560;29;20221;-77
2024/03/04 04:57:19;;;;;;;20.70;18.90;;;7.60;99.90;;;;;;4849521;29;20293;-77
2024/03/04 04:59:46;;;;;;;22.07;19.93;;;7.60;99.90;;;;;;4834359;29;20229;-78
2024/03/04 05:02:13;;;;;;;20.63;18.80;;;7.60;99.90;;;;;;4840067;29;20255;-78
2024/03/04 05:04:40;;;;;;;19.43;17.80;;;7.60;99.90;;;;;;4839697;29;20608;-78
2024/03/04 05:07:07;;;;;;;22.03;19.83;;;7.60;99.90;;;;;;4840401;29;20340;-78
2024/03/04 05:09:34;;;;;;;20.63;18.73;;;7.60;99.90;;;;;;4839621;29;20215;-78
2024/03/04 05:12:00;;;;;;;20.33;18.43;;;7.60;99.90;;;;;;4841242;29;20299;-78
2024/03/04 05:14:28;;;;;;;21.90;19.70;;;7.60;99.90;;;;;;4839727;29;20254;-77
2024/03/04 05:16:55;;;;;;;20.40;18.60;;;7.60;99.90;;;;;;4839842;29;20214;-78
2024/03/04 05:19:25;;;;;;;19.83;18.13;;;7.70;99.90;;;;;;4839951;29;20217;-78
2024/03/04 05:21:52;;;;;;;19.80;18.07;;;7.70;99.90;;;;;;4839841;29;20831;-77
2024/03/04 05:24:18;;;;;;;19.37;17.67;;;7.70;99.90;;;;;;4839660;29;20653;-77
2024/03/04 05:26:45;;;;;;;20.07;18.33;;;7.70;99.90;;;;;;4839792;29;20214;-78
2024/03/04 05:29:12;;;;;;;22.17;20.13;;;7.70;99.90;;;;;;4839621;29;20230;-79
2024/03/04 05:31:53;;;;;;;21.37;19.27;;;7.80;99.90;;;;;;4841484;29;20260;-77
2024/03/04 05:34:19;;;;;;;21.00;19.20;;;7.80;99.90;;;;;;4851698;29;20233;-78
2024/03/04 05:36:46;;;;;;;20.77;18.97;;;7.80;99.90;;;;;;4840970;29;20203;-78
2024/03/04 05:39:18;;;;;;;20.47;18.60;;;7.80;99.90;;;;;;4839766;29;20234;-78
2024/03/04 05:41:45;;;;;;;20.60;18.77;;;7.80;99.90;;;;;;4840844;29;20671;-77
2024/03/04 05:44:12;;;;;;;22.00;19.93;;;7.80;99.90;;;;;;4840821;29;20253;-77
2024/03/04 05:46:40;;;;;;;21.50;19.60;;;7.80;99.90;;;;;;4840539;29;20210;-78
2024/03/04 05:49:08;;;;;;;19.93;18.10;;;7.90;99.90;;;;;;4841659;29;20207;-77
2024/03/04 05:51:39;;;;;;;20.63;18.67;;;7.90;99.90;;;;;;4843952;29;20218;-77
2024/03/04 05:54:06;;;;;;;20.27;18.57;;;7.90;99.90;;;;;;4843418;29;20229;-77
2024/03/04 05:56:32;;;;;;;22.37;20.17;;;7.90;99.90;;;;;;4844181;29;20289;-77
2024/03/04 05:58:59;;;;;;;23.37;21.27;;;8.00;99.90;;;;;;4844679;29;20202;-78
2024/03/04 06:01:26;;;;;;;21.67;19.67;;;7.90;99.90;;;;;;4839799;29;20200;-77
2024/03/04 06:03:54;;;;;;;21.00;19.00;;;8.00;99.90;;;;;;4843977;29;20234;-78
2024/03/04 06:06:21;;;;;;;21.13;19.23;;;8.00;99.90;;;;;;4843928;29;20199;-78
2024/03/04 06:08:48;;;;;;;22.13;20.10;;;8.00;99.90;;;;;;4844478;29;20202;-78
2024/03/04 06:11:15;;;;;;;23.47;21.17;;;8.00;99.90;;;;;;4841602;29;20230;-78
2024/03/04 06:13:42;;;;;;;21.83;19.83;;;7.90;99.90;;;;;;4843414;29;20604;-78
2024/03/04 06:16:09;;;;;;;20.90;19.03;;;8.00;99.90;;;;;;4844137;29;20573;-78
2024/03/04 06:18:35;;;;;;;22.80;20.70;;;8.00;99.90;;;;;;4844279;29;20217;-78
2024/03/04 06:21:06;;;;;;;21.50;19.60;;;8.00;99.90;;;;;;4842680;29;20258;-78
2024/03/04 06:23:32;;;;;;;22.60;20.50;;;8.00;99.90;;;;;;4842056;29;20293;-78
2024/03/04 06:25:59;;;;;;;22.97;20.87;;;8.00;99.90;;;;;;4842998;29;20663;-78
2024/03/04 06:28:26;;;;;;;22.37;20.27;;;8.00;99.90;;;;;;4843556;29;20677;-78
2024/03/04 06:30:53;;;;;;;21.30;19.37;;;8.10;99.90;;;;;;4842517;29;20203;-78
2024/03/04 06:33:20;;;;;;;22.67;20.57;;;8.10;99.90;;;;;;4844297;29;20222;-79
2024/03/04 06:35:46;;;;;;;20.80;19.00;;;8.10;99.90;;;;;;4844478;29;20230;-78
2024/03/04 06:38:14;;;;;;;21.73;19.73;;;8.10;99.90;;;;;;4844173;29;20206;-78
2024/03/04 06:40:42;;;;;;;21.20;19.23;;;8.10;99.90;;;;;;4843174;29;20706;-78
2024/03/04 06:43:09;;;;;;;21.90;19.90;;;8.20;99.90;;;;;;4841980;29;20203;-78
2024/03/04 06:45:36;;;;;;;21.50;19.60;;;8.20;99.90;;;;;;4843135;29;20230;-78
2024/03/04 06:48:04;;;;;;;21.23;19.37;;;8.20;99.90;;;;;;4844038;29;20215;-78
2024/03/04 06:50:30;;;;;;;21.90;19.90;;;8.20;99.90;;;;;;4842796;29;20264;-78
2024/03/04 06:52:59;;;;;;;21.93;19.83;;;8.20;99.90;;;;;;4840614;29;20390;-77
2024/03/04 06:55:27;;;;;;;21.27;19.27;;;8.20;99.90;;;;;;4841549;29;20718;-79
2024/03/04 06:57:54;;;;;;;20.07;18.37;;;8.20;99.90;;;;;;4843956;29;20227;-78
2024/03/04 07:00:22;;;;;;;21.10;19.20;;;8.30;99.90;;;;;;4842874;29;20209;-78
2024/03/04 07:02:49;;;;;;;21.57;19.57;;;8.30;99.90;;;;;;4841715;29;20198;-78
2024/03/04 07:05:16;;;;;;;18.97;17.37;;;8.30;99.90;;;;;;4841824;29;20314;-78
2024/03/04 07:07:42;;;;;;;18.60;16.90;;;8.30;99.90;;;;;;4843076;29;20237;-78
2024/03/04 07:10:10;;;;;;;18.13;16.50;;;8.30;99.90;;;;;;4843006;29;20207;-78
2024/03/04 07:12:38;;;;;;;17.47;16.00;;;8.40;99.90;;;;;;4841536;29;20237;-78
2024/03/04 07:15:06;;;;;;;19.73;17.93;;;8.40;99.90;;;;;;4842159;29;20246;-78
2024/03/04 07:17:34;;;;;;;19.03;17.33;;;8.40;99.90;;;;;;4842748;29;20290;-78
2024/03/04 07:20:01;;;;;;;18.50;16.77;;;8.40;99.90;;;;;;4842728;29;20209;-77
2024/03/04 07:22:27;;;;;;;19.10;17.50;;;8.40;99.90;;;;;;4843094;29;20192;-78
2024/03/04 07:24:54;;;;;;;19.57;17.87;;;8.40;99.90;;;;;;4841060;29;20242;-78
2024/03/04 07:27:21;;;;;;;18.87;17.37;;;8.50;99.90;;;;;;4841666;29;20209;-78
2024/03/04 07:29:49;;;;;;;17.50;15.90;;;8.50;99.90;;;;;;4841613;29;20206;-78
2024/03/04 07:32:16;;;;;;;19.97;17.97;;;8.50;99.90;;;;;;4841371;29;20226;-78
2024/03/04 07:34:44;;;;;;;18.50;16.80;;;8.50;99.90;;;;;;4834736;29;20602;-77
2024/03/04 07:37:10;;;;;;;17.37;15.90;;;8.50;99.90;;;;;;4839666;29;20693;-78
2024/03/04 07:39:37;;;;;;;17.23;15.80;;;8.50;99.90;;;;;;4841761;29;20578;-78
2024/03/04 07:42:04;;;;;;;16.60;15.10;;;8.50;99.90;;;;;;4836773;29;20202;-78
2024/03/04 07:44:31;;;;;;;17.47;15.87;;;8.50;99.90;;;;;;4842062;29;20230;-78
2024/03/04 07:46:59;;;;;;;18.83;17.03;;;8.60;99.90;;;;;;4842235;29;20230;-78
2024/03/04 07:49:26;;;;;;;17.93;16.40;;;8.50;99.90;;;;;;4838457;29;20243;-78
2024/03/04 07:51:54;;;;;;;18.33;16.67;;;8.60;99.90;;;;;;4840370;29;20317;-78
2024/03/04 07:54:21;;;;;;;18.50;16.90;;;8.60;99.90;;;;;;4837568;29;20227;-78
2024/03/04 07:56:47;;;;;;;18.43;16.80;;;8.60;99.90;;;;;;4839608;29;20214;-78
2024/03/04 07:59:14;;;;;;;19.43;17.73;;;8.60;99.90;;;;;;4841066;29;20207;-78
2024/03/04 08:01:46;;;;;;;17.57;16.17;;;8.70;99.90;;;;;;4838604;29;20211;-78
2024/03/04 08:04:14;;;;;;;18.70;17.00;;;8.60;99.90;;;;;;4840549;29;20718;-78
2024/03/04 08:06:41;;;;;;;18.33;16.63;;;8.60;99.90;;;;;;4841090;29;20301;-78
2024/03/04 08:09:07;;;;;;;17.37;15.87;;;8.70;99.90;;;;;;4841548;29;20203;-78
2024/03/04 08:11:34;;;;;;;16.60;15.20;;;8.70;99.90;;;;;;4841503;29;20273;-77
2024/03/04 08:14:03;;;;;;;17.87;16.23;;;8.70;99.90;;;;;;4843723;29;20242;-77
2024/03/04 08:16:30;;;;;;;17.80;16.20;;;8.70;99.90;;;;;;4840569;29;20222;-77
2024/03/04 08:18:57;;;;;;;16.70;15.30;;;8.70;99.90;;;;;;4841591;29;20693;-79
2024/03/04 08:21:26;;;;;;;17.73;16.23;;;8.70;99.90;;;;;;4840137;29;20678;-77
2024/03/04 08:23:53;;;;;;;17.97;16.33;;;8.80;99.90;;;;;;4840492;29;20237;-79
2024/03/04 08:26:21;;;;;;;18.47;16.87;;;8.80;99.90;;;;;;4840576;29;20690;-79
2024/03/04 08:28:48;;;;;;;17.87;16.27;;;8.80;99.90;;;;;;4841599;29;20214;-79
2024/03/04 08:31:18;;;;;;;18.37;16.63;;;8.90;99.90;;;;;;4841789;29;20264;-78
2024/03/04 08:33:45;;;;;;;16.70;15.20;;;8.90;99.90;;;;;;4840201;29;20225;-77
2024/03/04 08:36:12;;;;;;;17.83;16.17;;;8.90;99.90;;;;;;4841325;29;20285;-78
2024/03/04 08:38:40;;;;;;;17.43;15.80;;;8.90;99.90;;;;;;4840809;29;20570;-77
2024/03/04 08:41:07;;;;;;;17.20;15.70;;;8.90;99.90;;;;;;4839505;29;20194;-77
2024/03/04 08:43:33;;;;;;;19.87;17.97;;;8.90;99.90;;;;;;4841082;29;20202;-78
2024/03/04 08:46:00;;;;;;;18.13;16.33;;;8.90;99.90;;;;;;4841358;29;20678;-78
2024/03/04 08:48:27;;;;;;;18.93;17.03;;;8.90;99.90;;;;;;4841247;29;20634;-78
2024/03/04 08:50:54;;;;;;;19.57;17.27;;;8.90;99.90;;;;;;4840768;29;20408;-78
2024/03/04 08:53:20;;;;;;;19.07;17.37;;;8.90;99.90;;;;;;4841547;29;20258;-77
2024/03/04 08:55:48;;;;;;;18.10;16.43;;;8.90;99.90;;;;;;4841376;29;20706;-77
2024/03/04 08:58:15;;;;;;;19.13;17.33;;;8.90;99.90;;;;;;4855337;29;20259;-78
2024/03/04 09:00:42;;;;;;;18.57;16.77;;;8.90;99.90;;;;;;4841011;29;20211;-77
2024/03/04 09:03:09;;;;;;;18.07;16.37;;;8.90;99.90;;;;;;4840049;29;20210;-78
2024/03/04 09:05:36;;;;;;;19.90;17.90;;;8.90;99.90;;;;;;4839193;29;20230;-78
2024/03/04 09:08:03;;;;;;;18.53;16.73;;;8.90;99.90;;;;;;4841120;29;20260;-78
2024/03/04 09:10:30;;;;;;;18.10;16.50;;;8.90;99.90;;;;;;4839390;29;20306;-77
2024/03/04 09:12:59;;;;;;;18.00;16.17;;;9.00;99.90;;;;;;4841098;29;20238;-78
2024/03/04 09:15:25;;;;;;;19.07;17.20;;;9.00;99.90;;;;;;4841214;29;20234;-78
2024/03/04 09:17:52;;;;;;;18.73;16.93;;;8.90;99.90;;;;;;4839892;29;20697;-78
2024/03/04 09:20:19;;;;;;;19.33;17.53;;;9.00;99.90;;;;;;4839951;29;20210;-78
2024/03/04 09:22:46;;;;;;;19.23;17.33;;;9.00;99.90;;;;;;4840549;29;20200;-78
2024/03/04 09:25:13;;;;;;;19.10;17.37;;;9.00;99.90;;;;;;4842739;29;20724;-78
2024/03/04 09:27:43;;;;;;;18.57;16.83;;;9.00;99.90;;;;;;4843147;29;20262;-78
2024/03/04 09:30:12;;;;;;;18.90;17.10;;;9.00;99.90;;;;;;4844807;29;20207;-78
2024/03/04 09:32:40;;;;;;;18.10;16.40;;;9.00;99.90;;;;;;4844741;29;20215;-79
2024/03/04 09:35:07;;;;;;;18.77;16.93;;;9.10;99.90;;;;;;4842967;29;20230;-78
2024/03/04 09:37:34;;;;;;;17.97;16.23;;;9.10;99.90;;;;;;4844211;29;20214;-79
2024/03/04 09:40:02;;;;;;;18.73;17.03;;;9.20;99.90;;;;;;4843990;29;20678;-78
2024/03/04 09:42:31;;;;;;;18.47;16.63;;;9.20;99.90;;;;;;4845023;29;20640;-78
2024/03/04 09:44:59;;;;;;;18.37;16.57;;;9.30;99.90;;;;;;4843537;29;20235;-77
2024/03/04 09:47:28;;;;;;;19.40;17.60;;;9.30;99.90;;;;;;4844776;29;20203;-79
2024/03/04 09:49:54;;;;;;;19.27;17.43;;;9.50;99.90;;;;;;4843294;29;20203;-78
2024/03/04 09:52:23;;;;;;;19.67;17.77;;;9.50;99.90;;;;;;4845950;29;20222;-79
2024/03/04 09:54:51;;;;;;;20.93;18.40;;;9.60;99.90;;;;;;4843040;29;20250;-78
2024/03/04 09:57:18;;;;;;;19.47;17.67;;;9.70;99.90;;;;;;4838041;29;20670;-78
2024/03/04 09:59:46;;;;;;;20.23;18.27;;;9.80;99.90;;;;;;4844434;29;20214;-79
2024/03/04 10:02:13;;;;;;;20.10;17.97;;;9.80;99.90;;;;;;4844203;29;20195;-79
2024/03/04 10:04:42;;;;;;;21.47;19.27;;;9.90;99.90;;;;;;4844568;29;20602;-78
2024/03/04 10:07:08;;;;;;;20.13;18.10;;;9.80;99.90;;;;;;4842925;29;20228;-79
2024/03/04 10:09:35;;;;;;;19.63;17.80;;;9.90;99.90;;;;;;4843222;29;20253;-79
2024/03/04 10:12:03;;;;;;;20.13;18.07;;;9.80;99.90;;;;;;4845169;29;20205;-79
2024/03/04 10:14:31;;;;;;;19.90;17.67;;;9.80;99.90;;;;;;4845425;29;20220;-79
2024/03/04 10:16:58;;;;;;;18.80;16.73;;;9.80;99.90;;;;;;4844077;29;20230;-79
2024/03/04 10:19:25;;;;;;;18.60;16.80;;;9.80;99.90;;;;;;4844375;29;20219;-79
2024/03/04 10:21:55;;;;;;;17.13;15.43;;;9.80;99.90;;;;;;4843895;29;20232;-79
2024/03/04 10:24:22;;;;;;;18.83;16.97;;;9.80;99.90;;;;;;4845479;29;20784;-79
2024/03/04 10:26:48;;;;;;;18.47;16.67;;;9.80;99.90;;;;;;4842934;29;20211;-77
2024/03/04 10:29:18;;;;;;;18.93;17.13;;;9.70;99.90;;;;;;4844015;29;20236;-78
2024/03/04 10:31:52;;;;;;;18.53;16.73;;;9.70;99.90;;;;;;4842952;29;20281;-78
2024/03/04 10:34:19;;;;;;;18.17;16.47;;;9.60;99.90;;;;;;4843835;29;20231;-79
2024/03/04 10:36:47;;;;;;;19.47;17.67;;;9.70;99.90;;;;;;4841930;29;20225;-79
2024/03/04 10:39:16;;;;;;;19.87;17.83;;;9.60;99.90;;;;;;4839299;29;20661;-78
2024/03/04 10:41:44;;;;;;;18.97;17.17;;;9.60;99.90;;;;;;4839796;29;20239;-78
2024/03/04 10:44:23;;;;;;;18.37;16.57;;;9.70;99.90;;;;;;4842451;29;20322;-78
2024/03/04 10:46:53;;;;;;;19.10;17.20;;;9.70;99.90;;;;;;4854590;29;20223;-78
2024/03/04 10:49:21;;;;;;;20.10;18.20;;;9.70;99.90;;;;;;4842940;29;20629;-79
2024/03/04 10:51:48;;;;;;;21.07;18.27;;;9.70;99.90;;;;;;4842609;29;20569;-79
2024/03/04 10:54:21;;;;;;;19.00;17.10;;;9.70;99.90;;;;;;4842136;29;20239;-79
2024/03/04 10:56:58;;;;;;;19.60;17.70;;;9.70;99.90;;;;;;4843924;29;20696;-78
2024/03/04 10:59:33;;;;;;;19.37;17.37;;;9.70;99.90;;;;;;4843657;29;20290;-78
2024/03/04 11:02:01;;;;;;;19.43;17.50;;;9.70;99.90;;;;;;4842593;29;20207;-78
2024/03/04 11:04:29;;;;;;;18.23;16.43;;;9.80;99.90;;;;;;4843534;29;20700;-79
2024/03/04 11:06:58;;;;;;;17.60;16.00;;;9.90;99.90;;;;;;4842390;29;20212;-80
2024/03/04 11:09:27;;;;;;;17.43;15.83;;;10.00;99.90;;;;;;4834216;29;20218;-78
2024/03/04 11:11:59;;;;;;;16.93;15.43;;;10.00;99.90;;;;;;4840304;29;20262;-78
2024/03/04 11:14:33;;;;;;;19.53;17.73;;;10.10;99.90;;;;;;4842186;29;20229;-79
2024/03/04 11:17:04;;;;;;;19.40;17.37;;;10.10;99.90;;;;;;4842719;29;20203;-79
2024/03/04 11:19:43;;;;;;;19.57;17.67;;;10.20;99.90;;;;;;4841331;29;20205;-78
2024/03/04 11:22:14;;;;;;;17.67;15.93;;;10.20;99.90;;;;;;4840953;29;20203;-79
2024/03/04 11:24:43;;;;;;;17.30;15.70;;;10.20;99.90;;;;;;4841888;29;20339;-78
2024/03/04 11:27:10;;;;;;;17.70;16.20;;;10.20;99.90;;;;;;4838984;29;20233;-78
2024/03/04 11:29:38;;;;;;;17.60;15.90;;;10.30;99.90;;;;;;4841452;29;20206;-78
2024/03/04 11:32:08;;;;;;;17.17;15.67;;;10.30;99.90;;;;;;4841276;29;20287;-78
2024/03/04 11:34:57;;;;;;;17.53;15.97;;;10.40;99.90;;;;;;4842899;29;20632;-78
2024/03/04 11:37:25;;;;;;;18.40;16.70;;;10.60;99.90;;;;;;4843340;29;20196;-78
2024/03/04 11:39:54;;;;;;;17.10;15.60;;;10.60;99.90;;;;;;4841965;29;20259;-78
2024/03/04 11:42:33;;;;;;;17.53;15.93;;;10.70;99.90;;;;;;4843638;29;20193;-78
2024/03/04 11:45:01;;;;;;;19.47;17.47;;;10.60;99.90;;;;;;4840799;29;20236;-78
2024/03/04 11:47:31;;;;;;;19.10;17.30;;;10.60;99.90;;;;;;4841314;29;20221;-79
2024/03/04 11:49:58;;;;;;;18.77;16.90;;;10.50;99.90;;;;;;4842110;29;20210;-79
2024/03/04 11:52:26;;;;;;;18.83;17.13;;;10.50;99.90;;;;;;4841621;29;20203;-78
2024/03/04 11:54:56;;;;;;;18.13;16.50;;;10.50;99.90;;;;;;4840984;29;20233;-78
2024/03/04 11:57:24;;;;;;;17.47;15.97;;;10.50;99.90;;;;;;4842146;29;20283;-78
2024/03/04 12:00:01;;;;;;;17.40;15.87;;;10.40;99.90;;;;;;4841531;29;20646;-77
2024/03/04 12:02:28;;;;;;;17.43;15.83;;;10.40;99.90;;;;;;4841260;29;20209;-78
2024/03/04 12:04:56;;;;;;;17.07;15.57;;;10.40;99.90;;;;;;4841455;29;20605;-79
2024/03/04 12:07:23;;;;;;;16.73;15.23;;;10.30;99.90;;;;;;4836268;29;20209;-79
2024/03/04 12:09:50;;;;;;;16.30;14.80;;;10.40;99.90;;;;;;4842648;29;20229;-78
2024/03/04 12:12:18;;;;;;;16.70;15.33;;;10.30;99.90;;;;;;4840992;29;20213;-79
2024/03/04 12:14:45;;;;;;;16.90;15.40;;;10.40;99.90;;;;;;4841351;29;20261;-78
2024/03/04 12:17:13;;;;;;;16.83;15.40;;;10.40;99.90;;;;;;4839307;29;20216;-78
2024/03/04 12:19:52;;;;;;;17.67;15.97;;;10.30;99.90;;;;;;4843336;29;20270;-78
2024/03/04 12:22:24;;;;;;;16.70;15.10;;;10.30;99.90;;;;;;4842451;29;20880;-78
2024/03/04 12:25:00;;;;;;;16.83;15.30;;;10.30;99.90;;;;;;4841274;29;20655;-78
2024/03/04 12:27:28;;;;;;;16.80;15.30;;;10.30;99.90;;;;;;4843071;29;20211;-79
2024/03/04 12:30:08;;;;;;;18.50;16.80;;;10.30;99.90;;;;;;4841543;29;20208;-79
2024/03/04 12:32:35;;;;;;;17.53;16.13;;;10.20;99.90;;;;;;4841026;29;20236;-78
2024/03/04 12:35:02;;;;;;;17.20;15.47;;;10.20;99.90;;;;;;4841722;29;20233;-78
2024/03/04 12:37:31;;;;;;;17.47;15.87;;;10.20;99.90;;;;;;4843770;29;20216;-78
2024/03/04 12:39:58;;;;;;;17.53;15.93;;;10.30;99.90;;;;;;4840951;29;20205;-79